sensor_id;sensor_type;location;lat;lon;timestamp;P1;durP1;ratioP1;P2;durP2;ratioP2
41627;SDS011;27321;50.816;6.054;2024-01-16T00:02:59;7.65;;;2.40;;
41627;SDS011;27321;50.816;6.054;2024-01-16T00:06:02;6.80;;;2.60;;
41627;SDS011;27321;50.816;6.054;2024-01-16T00:09:04;4.22;;;2.33;;
41627;SDS011;27321;50.816;6.054;2024-01-16T00:12:08;4.97;;;2.05;;
41627;SDS011;27321;50.816;6.054;2024-01-16T00:15:10;6.60;;;2.37;;
41627;SDS011;27321;50.816;6.054;2024-01-16T00:18:13;8.97;;;2.90;;
41627;SDS011;27321;50.816;6.054;2024-01-16T00:21:14;5.28;;;2.50;;
41627;SDS011;27321;50.816;6.054;2024-01-16T00:24:15;6.88;;;2.67;;
41627;SDS011;27321;50.816;6.054;2024-01-16T00:27:17;8.57;;;2.47;;
41627;SDS011;27321;50.816;6.054;2024-01-16T00:30:18;10.02;;;2.90;;
41627;SDS011;27321;50.816;6.054;2024-01-16T00:33:19;6.18;;;2.88;;
41627;SDS011;27321;50.816;6.054;2024-01-16T00:36:21;8.00;;;3.28;;
41627;SDS011;27321;50.816;6.054;2024-01-16T00:39:22;6.55;;;3.03;;
41627;SDS011;27321;50.816;6.054;2024-01-16T00:42:23;8.25;;;3.28;;
41627;SDS011;27321;50.816;6.054;2024-01-16T00:45:24;6.60;;;3.03;;
41627;SDS011;27321;50.816;6.054;2024-01-16T00:48:25;7.15;;;3.10;;
41627;SDS011;27321;50.816;6.054;2024-01-16T00:51:26;8.80;;;3.53;;
41627;SDS011;27321;50.816;6.054;2024-01-16T00:54:28;4.65;;;2.95;;
41627;SDS011;27321;50.816;6.054;2024-01-16T00:57:29;8.13;;;3.58;;
41627;SDS011;27321;50.816;6.054;2024-01-16T01:00:30;6.85;;;3.05;;
41627;SDS011;27321;50.816;6.054;2024-01-16T01:03:31;8.18;;;3.25;;
41627;SDS011;27321;50.816;6.054;2024-01-16T01:06:32;5.70;;;3.08;;
41627;SDS011;27321;50.816;6.054;2024-01-16T01:09:35;6.43;;;3.13;;
41627;SDS011;27321;50.816;6.054;2024-01-16T01:12:37;7.95;;;3.15;;
41627;SDS011;27321;50.816;6.054;2024-01-16T01:15:38;9.57;;;3.30;;
41627;SDS011;27321;50.816;6.054;2024-01-16T01:18:39;6.70;;;3.30;;
41627;SDS011;27321;50.816;6.054;2024-01-16T01:21:40;4.93;;;3.00;;
41627;SDS011;27321;50.816;6.054;2024-01-16T01:24:41;6.55;;;3.30;;
41627;SDS011;27321;50.816;6.054;2024-01-16T01:27:43;10.30;;;3.50;;
41627;SDS011;27321;50.816;6.054;2024-01-16T01:30:44;6.53;;;3.33;;
41627;SDS011;27321;50.816;6.054;2024-01-16T01:33:45;9.65;;;3.65;;
41627;SDS011;27321;50.816;6.054;2024-01-16T01:36:46;6.82;;;2.95;;
41627;SDS011;27321;50.816;6.054;2024-01-16T01:39:47;6.13;;;2.92;;
41627;SDS011;27321;50.816;6.054;2024-01-16T01:42:48;6.78;;;2.83;;
41627;SDS011;27321;50.816;6.054;2024-01-16T01:49:16;4.37;;;2.30;;
41627;SDS011;27321;50.816;6.054;2024-01-16T01:52:18;6.82;;;3.00;;
41627;SDS011;27321;50.816;6.054;2024-01-16T01:55:19;6.57;;;3.08;;
41627;SDS011;27321;50.816;6.054;2024-01-16T01:58:20;4.10;;;2.58;;
41627;SDS011;27321;50.816;6.054;2024-01-16T02:01:22;5.00;;;2.20;;
41627;SDS011;27321;50.816;6.054;2024-01-16T02:04:24;6.23;;;2.70;;
41627;SDS011;27321;50.816;6.054;2024-01-16T02:07:28;6.10;;;2.87;;
41627;SDS011;27321;50.816;6.054;2024-01-16T02:10:31;7.47;;;3.43;;
41627;SDS011;27321;50.816;6.054;2024-01-16T02:13:32;9.57;;;3.03;;
41627;SDS011;27321;50.816;6.054;2024-01-16T02:16:40;6.82;;;3.15;;
41627;SDS011;27321;50.816;6.054;2024-01-16T02:19:44;6.43;;;2.70;;
41627;SDS011;27321;50.816;6.054;2024-01-16T02:22:45;7.07;;;3.30;;
41627;SDS011;27321;50.816;6.054;2024-01-16T02:25:50;6.60;;;2.83;;
41627;SDS011;27321;50.816;6.054;2024-01-16T02:28:51;7.67;;;2.87;;
41627;SDS011;27321;50.816;6.054;2024-01-16T02:31:53;7.32;;;2.92;;
41627;SDS011;27321;50.816;6.054;2024-01-16T02:34:54;5.07;;;2.73;;
41627;SDS011;27321;50.816;6.054;2024-01-16T02:37:55;5.23;;;2.67;;
41627;SDS011;27321;50.816;6.054;2024-01-16T02:40:55;4.10;;;2.70;;
41627;SDS011;27321;50.816;6.054;2024-01-16T02:43:57;7.37;;;2.90;;
41627;SDS011;27321;50.816;6.054;2024-01-16T02:46:58;5.15;;;2.55;;
41627;SDS011;27321;50.816;6.054;2024-01-16T02:49:59;6.17;;;3.10;;
41627;SDS011;27321;50.816;6.054;2024-01-16T02:53:02;7.50;;;2.70;;
41627;SDS011;27321;50.816;6.054;2024-01-16T02:56:03;6.70;;;2.97;;
41627;SDS011;27321;50.816;6.054;2024-01-16T02:59:04;5.13;;;2.67;;
41627;SDS011;27321;50.816;6.054;2024-01-16T03:02:05;6.33;;;2.93;;
41627;SDS011;27321;50.816;6.054;2024-01-16T03:05:06;6.47;;;2.43;;
41627;SDS011;27321;50.816;6.054;2024-01-16T03:08:07;9.38;;;3.10;;
41627;SDS011;27321;50.816;6.054;2024-01-16T03:11:08;5.63;;;2.53;;
41627;SDS011;27321;50.816;6.054;2024-01-16T03:14:09;6.40;;;3.00;;
41627;SDS011;27321;50.816;6.054;2024-01-16T03:17:10;5.00;;;2.67;;
41627;SDS011;27321;50.816;6.054;2024-01-16T03:20:11;7.20;;;2.80;;
41627;SDS011;27321;50.816;6.054;2024-01-16T03:23:13;6.38;;;2.83;;
41627;SDS011;27321;50.816;6.054;2024-01-16T03:26:14;9.10;;;3.27;;
41627;SDS011;27321;50.816;6.054;2024-01-16T03:29:15;6.82;;;2.95;;
41627;SDS011;27321;50.816;6.054;2024-01-16T03:32:16;6.05;;;2.88;;
41627;SDS011;27321;50.816;6.054;2024-01-16T03:35:17;5.10;;;2.53;;
41627;SDS011;27321;50.816;6.054;2024-01-16T03:38:18;6.77;;;2.80;;
41627;SDS011;27321;50.816;6.054;2024-01-16T03:41:19;7.70;;;2.97;;
41627;SDS011;27321;50.816;6.054;2024-01-16T03:44:19;5.67;;;2.47;;
41627;SDS011;27321;50.816;6.054;2024-01-16T03:47:20;10.77;;;2.70;;
41627;SDS011;27321;50.816;6.054;2024-01-16T03:50:21;9.40;;;3.07;;
41627;SDS011;27321;50.816;6.054;2024-01-16T03:53:22;6.97;;;2.60;;
41627;SDS011;27321;50.816;6.054;2024-01-16T03:56:23;8.57;;;2.97;;
41627;SDS011;27321;50.816;6.054;2024-01-16T03:59:24;6.17;;;2.73;;
41627;SDS011;27321;50.816;6.054;2024-01-16T04:02:25;4.50;;;2.53;;
41627;SDS011;27321;50.816;6.054;2024-01-16T04:05:26;5.77;;;2.53;;
41627;SDS011;27321;50.816;6.054;2024-01-16T04:08:27;4.18;;;2.13;;
41627;SDS011;27321;50.816;6.054;2024-01-16T04:11:29;3.15;;;1.38;;
41627;SDS011;27321;50.816;6.054;2024-01-16T04:14:30;7.43;;;2.83;;
41627;SDS011;27321;50.816;6.054;2024-01-16T04:17:30;4.80;;;2.17;;
41627;SDS011;27321;50.816;6.054;2024-01-16T04:20:31;5.60;;;2.23;;
41627;SDS011;27321;50.816;6.054;2024-01-16T04:23:32;7.60;;;2.13;;
41627;SDS011;27321;50.816;6.054;2024-01-16T04:26:35;6.83;;;2.30;;
41627;SDS011;27321;50.816;6.054;2024-01-16T04:29:37;6.13;;;2.00;;
41627;SDS011;27321;50.816;6.054;2024-01-16T04:32:39;5.82;;;2.03;;
41627;SDS011;27321;50.816;6.054;2024-01-16T04:35:39;4.93;;;2.43;;
41627;SDS011;27321;50.816;6.054;2024-01-16T04:38:41;5.35;;;2.00;;
41627;SDS011;27321;50.816;6.054;2024-01-16T04:41:42;8.20;;;2.30;;
41627;SDS011;27321;50.816;6.054;2024-01-16T04:44:43;6.47;;;2.00;;
41627;SDS011;27321;50.816;6.054;2024-01-16T04:47:44;4.97;;;1.85;;
41627;SDS011;27321;50.816;6.054;2024-01-16T04:50:45;4.37;;;2.10;;
41627;SDS011;27321;50.816;6.054;2024-01-16T04:53:46;5.83;;;2.20;;
41627;SDS011;27321;50.816;6.054;2024-01-16T04:56:47;4.90;;;1.70;;
41627;SDS011;27321;50.816;6.054;2024-01-16T04:59:48;4.80;;;1.87;;
41627;SDS011;27321;50.816;6.054;2024-01-16T05:02:49;5.40;;;1.90;;
41627;SDS011;27321;50.816;6.054;2024-01-16T05:05:51;4.30;;;1.93;;
41627;SDS011;27321;50.816;6.054;2024-01-16T05:08:52;7.07;;;1.97;;
41627;SDS011;27321;50.816;6.054;2024-01-16T05:11:53;4.73;;;2.23;;
41627;SDS011;27321;50.816;6.054;2024-01-16T05:14:54;6.63;;;2.38;;
41627;SDS011;27321;50.816;6.054;2024-01-16T05:17:55;4.70;;;1.67;;
41627;SDS011;27321;50.816;6.054;2024-01-16T05:20:56;2.90;;;1.60;;
41627;SDS011;27321;50.816;6.054;2024-01-16T05:23:57;5.07;;;1.83;;
41627;SDS011;27321;50.816;6.054;2024-01-16T05:26:58;5.33;;;2.10;;
41627;SDS011;27321;50.816;6.054;2024-01-16T05:29:58;4.47;;;2.10;;
41627;SDS011;27321;50.816;6.054;2024-01-16T05:33:02;5.93;;;2.50;;
41627;SDS011;27321;50.816;6.054;2024-01-16T05:36:04;4.80;;;2.53;;
41627;SDS011;27321;50.816;6.054;2024-01-16T05:39:05;5.28;;;2.17;;
41627;SDS011;27321;50.816;6.054;2024-01-16T05:42:06;3.33;;;1.83;;
41627;SDS011;27321;50.816;6.054;2024-01-16T05:45:07;2.73;;;1.67;;
41627;SDS011;27321;50.816;6.054;2024-01-16T05:48:09;3.03;;;1.98;;
41627;SDS011;27321;50.816;6.054;2024-01-16T05:51:10;7.65;;;2.03;;
41627;SDS011;27321;50.816;6.054;2024-01-16T05:54:11;2.97;;;2.03;;
41627;SDS011;27321;50.816;6.054;2024-01-16T05:57:12;4.60;;;1.90;;
41627;SDS011;27321;50.816;6.054;2024-01-16T06:00:13;5.30;;;2.13;;
41627;SDS011;27321;50.816;6.054;2024-01-16T06:03:15;4.33;;;1.80;;
41627;SDS011;27321;50.816;6.054;2024-01-16T06:06:16;4.20;;;2.10;;
41627;SDS011;27321;50.816;6.054;2024-01-16T06:09:17;4.90;;;2.30;;
41627;SDS011;27321;50.816;6.054;2024-01-16T06:12:18;4.38;;;1.65;;
41627;SDS011;27321;50.816;6.054;2024-01-16T06:15:19;2.77;;;1.53;;
41627;SDS011;27321;50.816;6.054;2024-01-16T06:18:20;3.00;;;1.90;;
41627;SDS011;27321;50.816;6.054;2024-01-16T06:21:21;2.17;;;1.40;;
41627;SDS011;27321;50.816;6.054;2024-01-16T06:24:22;5.23;;;2.07;;
41627;SDS011;27321;50.816;6.054;2024-01-16T06:27:23;3.90;;;2.10;;
41627;SDS011;27321;50.816;6.054;2024-01-16T06:30:24;4.77;;;2.20;;
41627;SDS011;27321;50.816;6.054;2024-01-16T06:33:25;5.57;;;2.10;;
41627;SDS011;27321;50.816;6.054;2024-01-16T06:36:26;3.60;;;2.00;;
41627;SDS011;27321;50.816;6.054;2024-01-16T06:39:27;2.63;;;1.80;;
41627;SDS011;27321;50.816;6.054;2024-01-16T06:42:27;3.70;;;1.87;;
41627;SDS011;27321;50.816;6.054;2024-01-16T06:45:28;3.87;;;2.07;;
41627;SDS011;27321;50.816;6.054;2024-01-16T06:48:29;3.37;;;1.63;;
41627;SDS011;27321;50.816;6.054;2024-01-16T06:51:30;2.97;;;1.90;;
41627;SDS011;27321;50.816;6.054;2024-01-16T06:54:31;2.33;;;1.70;;
41627;SDS011;27321;50.816;6.054;2024-01-16T06:57:32;4.38;;;1.95;;
41627;SDS011;27321;50.816;6.054;2024-01-16T07:00:33;2.33;;;1.83;;
41627;SDS011;27321;50.816;6.054;2024-01-16T07:03:34;4.40;;;1.60;;
41627;SDS011;27321;50.816;6.054;2024-01-16T07:06:35;5.07;;;1.73;;
41627;SDS011;27321;50.816;6.054;2024-01-16T07:09:36;4.07;;;1.83;;
41627;SDS011;27321;50.816;6.054;2024-01-16T07:12:37;3.57;;;1.90;;
41627;SDS011;27321;50.816;6.054;2024-01-16T07:15:38;2.77;;;1.73;;
41627;SDS011;27321;50.816;6.054;2024-01-16T07:18:39;3.33;;;2.37;;
41627;SDS011;27321;50.816;6.054;2024-01-16T07:21:40;4.07;;;2.03;;
41627;SDS011;27321;50.816;6.054;2024-01-16T07:24:41;5.53;;;1.90;;
41627;SDS011;27321;50.816;6.054;2024-01-16T07:27:42;3.30;;;2.10;;
41627;SDS011;27321;50.816;6.054;2024-01-16T07:30:45;3.83;;;2.03;;
41627;SDS011;27321;50.816;6.054;2024-01-16T07:33:46;3.97;;;1.60;;
41627;SDS011;27321;50.816;6.054;2024-01-16T07:36:47;5.07;;;1.60;;
41627;SDS011;27321;50.816;6.054;2024-01-16T07:39:48;2.13;;;1.93;;
41627;SDS011;27321;50.816;6.054;2024-01-16T07:42:49;4.00;;;1.80;;
41627;SDS011;27321;50.816;6.054;2024-01-16T07:45:50;3.23;;;1.60;;
41627;SDS011;27321;50.816;6.054;2024-01-16T07:48:51;4.17;;;2.07;;
41627;SDS011;27321;50.816;6.054;2024-01-16T07:51:52;5.87;;;2.00;;
41627;SDS011;27321;50.816;6.054;2024-01-16T07:54:53;3.50;;;2.20;;
41627;SDS011;27321;50.816;6.054;2024-01-16T07:57:54;3.83;;;1.80;;
41627;SDS011;27321;50.816;6.054;2024-01-16T08:00:55;5.55;;;1.92;;
41627;SDS011;27321;50.816;6.054;2024-01-16T08:03:56;3.27;;;2.07;;
41627;SDS011;27321;50.816;6.054;2024-01-16T08:06:57;4.00;;;2.10;;
41627;SDS011;27321;50.816;6.054;2024-01-16T08:09:58;1.98;;;1.80;;
41627;SDS011;27321;50.816;6.054;2024-01-16T08:12:59;4.10;;;1.77;;
41627;SDS011;27321;50.816;6.054;2024-01-16T08:16:02;4.20;;;1.93;;
41627;SDS011;27321;50.816;6.054;2024-01-16T08:19:03;4.13;;;2.40;;
41627;SDS011;27321;50.816;6.054;2024-01-16T08:25:06;3.63;;;2.13;;
41627;SDS011;27321;50.816;6.054;2024-01-16T08:28:08;2.42;;;1.80;;
41627;SDS011;27321;50.816;6.054;2024-01-16T08:34:11;4.30;;;2.20;;
41627;SDS011;27321;50.816;6.054;2024-01-16T08:37:11;4.43;;;2.10;;
41627;SDS011;27321;50.816;6.054;2024-01-16T08:40:12;3.30;;;1.97;;
41627;SDS011;27321;50.816;6.054;2024-01-16T08:43:14;6.28;;;2.60;;
41627;SDS011;27321;50.816;6.054;2024-01-16T08:46:14;6.13;;;2.33;;
41627;SDS011;27321;50.816;6.054;2024-01-16T08:49:15;3.40;;;1.90;;
41627;SDS011;27321;50.816;6.054;2024-01-16T08:52:17;3.17;;;1.85;;
41627;SDS011;27321;50.816;6.054;2024-01-16T08:55:18;3.83;;;2.20;;
41627;SDS011;27321;50.816;6.054;2024-01-16T08:58:19;1.93;;;1.60;;
41627;SDS011;27321;50.816;6.054;2024-01-16T09:01:19;4.00;;;2.37;;
41627;SDS011;27321;50.816;6.054;2024-01-16T09:04:21;3.22;;;2.33;;
41627;SDS011;27321;50.816;6.054;2024-01-16T09:07:21;3.00;;;2.00;;
41627;SDS011;27321;50.816;6.054;2024-01-16T09:10:23;5.20;;;2.50;;
41627;SDS011;27321;50.816;6.054;2024-01-16T09:13:24;6.03;;;2.70;;
41627;SDS011;27321;50.816;6.054;2024-01-16T09:16:24;3.90;;;2.43;;
41627;SDS011;27321;50.816;6.054;2024-01-16T09:19:25;3.63;;;2.30;;
41627;SDS011;27321;50.816;6.054;2024-01-16T09:22:26;5.70;;;2.90;;
41627;SDS011;27321;50.816;6.054;2024-01-16T09:25:27;6.13;;;2.53;;
41627;SDS011;27321;50.816;6.054;2024-01-16T09:28:29;3.47;;;2.20;;
41627;SDS011;27321;50.816;6.054;2024-01-16T09:31:30;4.10;;;2.30;;
41627;SDS011;27321;50.816;6.054;2024-01-16T09:34:31;5.23;;;2.43;;
41627;SDS011;27321;50.816;6.054;2024-01-16T09:37:32;4.00;;;2.13;;
41627;SDS011;27321;50.816;6.054;2024-01-16T09:40:33;3.50;;;2.17;;
41627;SDS011;27321;50.816;6.054;2024-01-16T09:43:35;4.13;;;2.30;;
41627;SDS011;27321;50.816;6.054;2024-01-16T09:49:40;4.30;;;2.40;;
41627;SDS011;27321;50.816;6.054;2024-01-16T09:52:42;3.90;;;1.90;;
41627;SDS011;27321;50.816;6.054;2024-01-16T09:55:45;3.80;;;2.10;;
41627;SDS011;27321;50.816;6.054;2024-01-16T09:58:51;4.30;;;2.13;;
41627;SDS011;27321;50.816;6.054;2024-01-16T10:02:02;2.90;;;1.70;;
41627;SDS011;27321;50.816;6.054;2024-01-16T10:05:07;3.77;;;1.97;;
41627;SDS011;27321;50.816;6.054;2024-01-16T10:08:10;4.27;;;2.23;;
41627;SDS011;27321;50.816;6.054;2024-01-16T10:11:10;5.13;;;2.13;;
41627;SDS011;27321;50.816;6.054;2024-01-16T10:14:11;2.73;;;1.70;;
41627;SDS011;27321;50.816;6.054;2024-01-16T10:17:12;2.95;;;1.83;;
41627;SDS011;27321;50.816;6.054;2024-01-16T10:20:18;3.30;;;2.00;;
41627;SDS011;27321;50.816;6.054;2024-01-16T10:23:36;3.43;;;1.57;;
41627;SDS011;27321;50.816;6.054;2024-01-16T10:26:39;4.43;;;2.00;;
41627;SDS011;27321;50.816;6.054;2024-01-16T10:29:45;3.03;;;1.87;;
41627;SDS011;27321;50.816;6.054;2024-01-16T10:33:00;2.57;;;1.70;;
41627;SDS011;27321;50.816;6.054;2024-01-16T10:36:17;4.07;;;1.90;;
41627;SDS011;27321;50.816;6.054;2024-01-16T10:39:20;2.70;;;1.77;;
41627;SDS011;27321;50.816;6.054;2024-01-16T10:42:21;5.93;;;2.43;;
41627;SDS011;27321;50.816;6.054;2024-01-16T10:45:22;4.13;;;2.10;;
41627;SDS011;27321;50.816;6.054;2024-01-16T10:48:23;2.87;;;1.90;;
41627;SDS011;27321;50.816;6.054;2024-01-16T10:51:24;4.53;;;2.20;;
41627;SDS011;27321;50.816;6.054;2024-01-16T10:54:28;4.10;;;2.63;;
41627;SDS011;27321;50.816;6.054;2024-01-16T10:57:31;4.72;;;2.13;;
41627;SDS011;27321;50.816;6.054;2024-01-16T11:00:33;4.37;;;2.20;;
41627;SDS011;27321;50.816;6.054;2024-01-16T11:06:51;4.53;;;2.73;;
41627;SDS011;27321;50.816;6.054;2024-01-16T11:09:54;3.23;;;2.57;;
41627;SDS011;27321;50.816;6.054;2024-01-16T11:12:56;4.00;;;2.67;;
41627;SDS011;27321;50.816;6.054;2024-01-16T11:16:03;4.70;;;2.80;;
41627;SDS011;27321;50.816;6.054;2024-01-16T11:19:04;5.85;;;2.65;;
41627;SDS011;27321;50.816;6.054;2024-01-16T11:22:09;4.40;;;2.40;;
41627;SDS011;27321;50.816;6.054;2024-01-16T11:25:11;4.07;;;2.15;;
41627;SDS011;27321;50.816;6.054;2024-01-16T11:28:14;2.30;;;1.80;;
41627;SDS011;27321;50.816;6.054;2024-01-16T11:37:42;4.33;;;2.90;;
41627;SDS011;27321;50.816;6.054;2024-01-16T11:40:44;3.33;;;2.10;;
41627;SDS011;27321;50.816;6.054;2024-01-16T11:43:45;2.42;;;1.88;;
41627;SDS011;27321;50.816;6.054;2024-01-16T11:47:05;4.47;;;2.47;;
41627;SDS011;27321;50.816;6.054;2024-01-16T11:50:10;5.33;;;2.57;;
41627;SDS011;27321;50.816;6.054;2024-01-16T11:53:35;4.03;;;2.30;;
41627;SDS011;27321;50.816;6.054;2024-01-16T12:00:08;4.07;;;2.33;;
41627;SDS011;27321;50.816;6.054;2024-01-16T12:03:20;3.47;;;2.20;;
41627;SDS011;27321;50.816;6.054;2024-01-16T12:06:22;6.57;;;2.77;;
41627;SDS011;27321;50.816;6.054;2024-01-16T12:09:25;5.60;;;2.90;;
41627;SDS011;27321;50.816;6.054;2024-01-16T12:12:27;5.03;;;2.40;;
41627;SDS011;27321;50.816;6.054;2024-01-16T12:15:28;4.70;;;2.33;;
41627;SDS011;27321;50.816;6.054;2024-01-16T12:18:30;5.30;;;3.03;;
41627;SDS011;27321;50.816;6.054;2024-01-16T12:21:32;3.87;;;2.33;;
41627;SDS011;27321;50.816;6.054;2024-01-16T12:24:41;5.70;;;2.77;;
41627;SDS011;27321;50.816;6.054;2024-01-16T12:27:42;5.72;;;2.63;;
41627;SDS011;27321;50.816;6.054;2024-01-16T12:30:48;8.90;;;2.70;;
41627;SDS011;27321;50.816;6.054;2024-01-16T12:33:51;4.43;;;2.37;;
41627;SDS011;27321;50.816;6.054;2024-01-16T12:36:56;3.87;;;2.20;;
41627;SDS011;27321;50.816;6.054;2024-01-16T12:40:08;3.10;;;2.23;;
41627;SDS011;27321;50.816;6.054;2024-01-16T12:43:09;3.23;;;2.50;;
41627;SDS011;27321;50.816;6.054;2024-01-16T12:46:11;4.03;;;2.67;;
41627;SDS011;27321;50.816;6.054;2024-01-16T12:49:15;5.60;;;3.00;;
41627;SDS011;27321;50.816;6.054;2024-01-16T12:52:17;4.30;;;3.03;;
41627;SDS011;27321;50.816;6.054;2024-01-16T12:55:20;4.30;;;2.33;;
41627;SDS011;27321;50.816;6.054;2024-01-16T12:58:21;5.30;;;2.73;;
41627;SDS011;27321;50.816;6.054;2024-01-16T13:01:29;3.33;;;2.27;;
41627;SDS011;27321;50.816;6.054;2024-01-16T13:04:31;4.30;;;2.80;;
41627;SDS011;27321;50.816;6.054;2024-01-16T13:07:32;5.77;;;2.70;;
41627;SDS011;27321;50.816;6.054;2024-01-16T13:10:33;6.80;;;3.10;;
41627;SDS011;27321;50.816;6.054;2024-01-16T13:13:35;5.20;;;2.67;;
41627;SDS011;27321;50.816;6.054;2024-01-16T13:16:37;7.55;;;3.45;;
41627;SDS011;27321;50.816;6.054;2024-01-16T13:19:39;5.47;;;3.03;;
41627;SDS011;27321;50.816;6.054;2024-01-16T13:22:42;3.87;;;2.50;;
41627;SDS011;27321;50.816;6.054;2024-01-16T13:25:43;6.77;;;2.80;;
41627;SDS011;27321;50.816;6.054;2024-01-16T13:28:45;5.10;;;3.00;;
41627;SDS011;27321;50.816;6.054;2024-01-16T13:31:48;7.50;;;2.97;;
41627;SDS011;27321;50.816;6.054;2024-01-16T13:34:49;3.35;;;2.83;;
41627;SDS011;27321;50.816;6.054;2024-01-16T13:37:50;3.73;;;2.60;;
41627;SDS011;27321;50.816;6.054;2024-01-16T13:40:51;5.10;;;2.93;;
41627;SDS011;27321;50.816;6.054;2024-01-16T13:43:52;3.83;;;2.70;;
41627;SDS011;27321;50.816;6.054;2024-01-16T13:46:52;4.87;;;3.20;;
41627;SDS011;27321;50.816;6.054;2024-01-16T13:49:53;3.67;;;2.33;;
41627;SDS011;27321;50.816;6.054;2024-01-16T13:52:54;4.43;;;2.57;;
41627;SDS011;27321;50.816;6.054;2024-01-16T13:55:55;5.50;;;2.37;;
41627;SDS011;27321;50.816;6.054;2024-01-16T13:58:58;5.37;;;2.33;;
41627;SDS011;27321;50.816;6.054;2024-01-16T14:01:59;5.10;;;2.53;;
41627;SDS011;27321;50.816;6.054;2024-01-16T14:05:04;5.63;;;2.47;;
41627;SDS011;27321;50.816;6.054;2024-01-16T14:08:06;4.88;;;2.10;;
41627;SDS011;27321;50.816;6.054;2024-01-16T14:11:08;4.87;;;2.47;;
41627;SDS011;27321;50.816;6.054;2024-01-16T14:14:09;4.07;;;2.30;;
41627;SDS011;27321;50.816;6.054;2024-01-16T14:17:11;3.20;;;2.07;;
41627;SDS011;27321;50.816;6.054;2024-01-16T14:20:12;4.13;;;2.27;;
41627;SDS011;27321;50.816;6.054;2024-01-16T14:23:14;2.57;;;1.67;;
41627;SDS011;27321;50.816;6.054;2024-01-16T14:26:16;4.80;;;2.10;;
41627;SDS011;27321;50.816;6.054;2024-01-16T14:29:18;5.17;;;2.30;;
41627;SDS011;27321;50.816;6.054;2024-01-16T14:32:18;3.10;;;1.93;;
41627;SDS011;27321;50.816;6.054;2024-01-16T14:35:19;4.10;;;2.53;;
41627;SDS011;27321;50.816;6.054;2024-01-16T14:38:21;2.40;;;1.88;;
41627;SDS011;27321;50.816;6.054;2024-01-16T14:41:22;3.63;;;1.83;;
41627;SDS011;27321;50.816;6.054;2024-01-16T14:44:22;3.30;;;2.30;;
41627;SDS011;27321;50.816;6.054;2024-01-16T14:47:24;3.80;;;1.90;;
41627;SDS011;27321;50.816;6.054;2024-01-16T14:50:24;2.40;;;1.60;;
41627;SDS011;27321;50.816;6.054;2024-01-16T14:53:25;3.80;;;2.00;;
41627;SDS011;27321;50.816;6.054;2024-01-16T14:56:26;3.13;;;2.03;;
41627;SDS011;27321;50.816;6.054;2024-01-16T14:59:27;4.73;;;2.03;;
41627;SDS011;27321;50.816;6.054;2024-01-16T15:02:28;2.63;;;1.80;;
41627;SDS011;27321;50.816;6.054;2024-01-16T15:05:29;2.10;;;1.77;;
41627;SDS011;27321;50.816;6.054;2024-01-16T15:08:30;2.73;;;1.87;;
41627;SDS011;27321;50.816;6.054;2024-01-16T15:11:33;3.40;;;2.03;;
41627;SDS011;27321;50.816;6.054;2024-01-16T15:14:34;2.93;;;1.90;;
41627;SDS011;27321;50.816;6.054;2024-01-16T15:20:36;2.77;;;2.00;;
41627;SDS011;27321;50.816;6.054;2024-01-16T15:23:37;3.87;;;2.00;;
41627;SDS011;27321;50.816;6.054;2024-01-16T15:26:38;3.17;;;1.97;;
41627;SDS011;27321;50.816;6.054;2024-01-16T15:29:39;4.37;;;2.40;;
41627;SDS011;27321;50.816;6.054;2024-01-16T15:32:41;4.35;;;2.38;;
41627;SDS011;27321;50.816;6.054;2024-01-16T15:35:42;4.40;;;2.40;;
41627;SDS011;27321;50.816;6.054;2024-01-16T15:38:43;3.33;;;2.30;;
41627;SDS011;27321;50.816;6.054;2024-01-16T15:41:45;3.77;;;2.30;;
41627;SDS011;27321;50.816;6.054;2024-01-16T15:44:46;3.93;;;2.17;;
41627;SDS011;27321;50.816;6.054;2024-01-16T15:47:48;3.85;;;2.40;;
41627;SDS011;27321;50.816;6.054;2024-01-16T15:50:49;4.37;;;2.37;;
41627;SDS011;27321;50.816;6.054;2024-01-16T15:53:49;2.60;;;2.20;;
41627;SDS011;27321;50.816;6.054;2024-01-16T15:56:50;3.87;;;2.20;;
41627;SDS011;27321;50.816;6.054;2024-01-16T15:59:51;3.27;;;2.23;;
41627;SDS011;27321;50.816;6.054;2024-01-16T16:02:52;4.10;;;2.47;;
41627;SDS011;27321;50.816;6.054;2024-01-16T16:05:53;3.93;;;2.13;;
41627;SDS011;27321;50.816;6.054;2024-01-16T16:08:54;3.27;;;2.37;;
41627;SDS011;27321;50.816;6.054;2024-01-16T16:11:55;4.32;;;2.42;;
41627;SDS011;27321;50.816;6.054;2024-01-16T16:14:57;3.20;;;2.25;;
41627;SDS011;27321;50.816;6.054;2024-01-16T16:17:57;3.10;;;2.43;;
41627;SDS011;27321;50.816;6.054;2024-01-16T16:20:58;4.47;;;2.80;;
41627;SDS011;27321;50.816;6.054;2024-01-16T16:23:59;5.40;;;2.80;;
41627;SDS011;27321;50.816;6.054;2024-01-16T16:27:20;4.13;;;2.63;;
41627;SDS011;27321;50.816;6.054;2024-01-16T16:30:24;3.15;;;2.50;;
41627;SDS011;27321;50.816;6.054;2024-01-16T16:33:25;3.87;;;2.20;;
41627;SDS011;27321;50.816;6.054;2024-01-16T16:36:26;3.83;;;2.27;;
41627;SDS011;27321;50.816;6.054;2024-01-16T16:39:28;3.67;;;2.40;;
41627;SDS011;27321;50.816;6.054;2024-01-16T16:42:29;4.13;;;2.00;;
41627;SDS011;27321;50.816;6.054;2024-01-16T16:45:30;3.50;;;2.40;;
41627;SDS011;27321;50.816;6.054;2024-01-16T16:48:31;4.65;;;2.47;;
41627;SDS011;27321;50.816;6.054;2024-01-16T16:51:33;3.17;;;2.10;;
41627;SDS011;27321;50.816;6.054;2024-01-16T16:54:41;3.87;;;2.00;;
41627;SDS011;27321;50.816;6.054;2024-01-16T16:57:46;4.73;;;2.40;;
41627;SDS011;27321;50.816;6.054;2024-01-16T17:00:47;4.77;;;2.57;;
41627;SDS011;27321;50.816;6.054;2024-01-16T17:03:48;2.17;;;1.90;;
41627;SDS011;27321;50.816;6.054;2024-01-16T17:06:52;4.00;;;2.23;;
41627;SDS011;27321;50.816;6.054;2024-01-16T17:09:55;2.43;;;2.10;;
41627;SDS011;27321;50.816;6.054;2024-01-16T17:12:56;3.30;;;2.10;;
41627;SDS011;27321;50.816;6.054;2024-01-16T17:15:57;4.33;;;2.50;;
41627;SDS011;27321;50.816;6.054;2024-01-16T17:18:59;3.38;;;2.70;;
41627;SDS011;27321;50.816;6.054;2024-01-16T17:22:02;4.38;;;2.20;;
41627;SDS011;27321;50.816;6.054;2024-01-16T17:25:03;3.17;;;2.27;;
41627;SDS011;27321;50.816;6.054;2024-01-16T17:28:06;4.97;;;2.50;;
41627;SDS011;27321;50.816;6.054;2024-01-16T17:31:07;3.70;;;2.20;;
41627;SDS011;27321;50.816;6.054;2024-01-16T17:34:07;4.07;;;2.00;;
41627;SDS011;27321;50.816;6.054;2024-01-16T17:37:09;4.40;;;2.38;;
41627;SDS011;27321;50.816;6.054;2024-01-16T17:40:10;2.60;;;2.00;;
41627;SDS011;27321;50.816;6.054;2024-01-16T17:43:14;4.50;;;2.60;;
41627;SDS011;27321;50.816;6.054;2024-01-16T17:46:15;4.20;;;2.57;;
41627;SDS011;27321;50.816;6.054;2024-01-16T17:49:16;4.33;;;2.53;;
41627;SDS011;27321;50.816;6.054;2024-01-16T17:52:17;4.47;;;2.42;;
41627;SDS011;27321;50.816;6.054;2024-01-16T17:55:21;2.93;;;2.20;;
41627;SDS011;27321;50.816;6.054;2024-01-16T17:58:23;3.30;;;2.25;;
41627;SDS011;27321;50.816;6.054;2024-01-16T18:01:25;3.23;;;2.13;;
41627;SDS011;27321;50.816;6.054;2024-01-16T18:04:26;3.03;;;2.30;;
41627;SDS011;27321;50.816;6.054;2024-01-16T18:07:28;5.47;;;2.70;;
41627;SDS011;27321;50.816;6.054;2024-01-16T18:10:29;3.57;;;2.40;;
41627;SDS011;27321;50.816;6.054;2024-01-16T18:13:31;3.13;;;2.30;;
41627;SDS011;27321;50.816;6.054;2024-01-16T18:16:32;2.78;;;1.95;;
41627;SDS011;27321;50.816;6.054;2024-01-16T18:19:33;4.90;;;2.37;;
41627;SDS011;27321;50.816;6.054;2024-01-16T18:22:33;3.40;;;2.00;;
41627;SDS011;27321;50.816;6.054;2024-01-16T18:25:35;5.60;;;2.47;;
41627;SDS011;27321;50.816;6.054;2024-01-16T18:28:36;3.40;;;2.30;;
41627;SDS011;27321;50.816;6.054;2024-01-16T18:31:37;4.07;;;2.43;;
41627;SDS011;27321;50.816;6.054;2024-01-16T18:34:38;3.60;;;2.20;;
41627;SDS011;27321;50.816;6.054;2024-01-16T18:37:43;3.00;;;2.20;;
41627;SDS011;27321;50.816;6.054;2024-01-16T18:40:46;3.47;;;2.17;;
41627;SDS011;27321;50.816;6.054;2024-01-16T18:43:47;2.47;;;1.80;;
41627;SDS011;27321;50.816;6.054;2024-01-16T18:46:49;2.83;;;2.08;;